Time;durP1;ratioP1;P1;durP2;ratioP2;P2;SDS_P1;SDS_P2;PMS_P1;PMS_P2;Temp;Humidity;BMP_temperature;BMP_pressure;BME280_temperature;BME280_humidity;BME280_pressure;Samples;Min_cycle;Max_cycle;Signal;HPM_P1;HPM_P2
2021/03/30 00:01:19;;;;;;;0.60;0.60;;;9.30;99.90;;;;;;6087451;23;20176;-84
2021/03/30 00:03:45;;;;;;;0.60;0.60;;;9.20;99.90;;;;;;6086998;23;20254;-85
2021/03/30 00:06:13;;;;;;;0.55;0.55;;;9.20;99.90;;;;;;6088976;23;20186;-86
2021/03/30 00:08:39;;;;;;;0.60;0.60;;;9.20;99.90;;;;;;6088086;23;20187;-86
2021/03/30 00:11:06;;;;;;;0.50;0.50;;;9.10;99.90;;;;;;6088740;23;20654;-85
2021/03/30 00:13:33;;;;;;;0.50;0.50;;;9.10;99.90;;;;;;6088630;23;20542;-85
2021/03/30 00:16:00;;;;;;;0.50;0.50;;;9.00;99.90;;;;;;6087953;23;20524;-85
2021/03/30 00:18:26;;;;;;;0.50;0.50;;;9.00;99.90;;;;;;6087890;23;20847;-85
2021/03/30 00:20:52;;;;;;;0.60;0.60;;;11.00;99.90;;;;;;6088373;23;20740;-86
2021/03/30 00:23:19;;;;;;;0.60;0.60;;;10.40;99.90;;;;;;6089720;23;20175;-86
2021/03/30 00:25:45;;;;;;;0.60;0.60;;;9.10;99.90;;;;;;6088620;23;20180;-86
2021/03/30 00:28:11;;;;;;;0.57;0.57;;;8.80;99.90;;;;;;6089250;23;20491;-86
2021/03/30 00:30:38;;;;;;;0.60;0.60;;;8.90;99.90;;;;;;6087601;23;20190;-86
2021/03/30 00:33:05;;;;;;;0.60;0.60;;;8.90;99.90;;;;;;6087663;23;20195;-85
2021/03/30 00:35:31;;;;;;;0.55;0.55;;;9.20;99.90;;;;;;6086492;23;20262;-85
2021/03/30 00:37:58;;;;;;;0.50;0.50;;;8.90;99.90;;;;;;6086783;23;20488;-85
2021/03/30 00:40:24;;;;;;;0.50;0.50;;;8.80;99.90;;;;;;6087089;23;20202;-86
2021/03/30 00:42:53;;;;;;;0.60;0.60;;;8.70;99.90;;;;;;6087552;23;20262;-86
2021/03/30 00:45:19;;;;;;;0.60;0.60;;;8.50;99.90;;;;;;6087217;23;20180;-83
2021/03/30 00:47:47;;;;;;;0.60;0.60;;;8.50;99.90;;;;;;6086793;23;20175;-83
2021/03/30 00:50:17;;;;;;;0.60;0.60;;;8.50;99.90;;;;;;6086541;23;20176;-83
2021/03/30 00:52:43;;;;;;;0.57;0.57;;;8.70;99.90;;;;;;6086242;23;20203;-83
2021/03/30 00:55:11;;;;;;;0.60;0.60;;;8.80;99.90;;;;;;6086429;23;20623;-86
2021/03/30 00:57:37;;;;;;;0.60;0.60;;;8.80;99.90;;;;;;6090144;23;20175;-87
2021/03/30 01:00:05;;;;;;;0.52;0.52;;;8.90;99.90;;;;;;6102952;23;20178;-84
2021/03/30 01:02:32;;;;;;;0.60;0.60;;;9.00;99.90;;;;;;6098425;23;20214;-84
2021/03/30 01:05:00;;;;;;;0.60;0.60;;;8.30;99.90;;;;;;6096710;23;20183;-84
2021/03/30 01:07:26;;;;;;;0.60;0.60;;;8.20;99.90;;;;;;6095674;23;20628;-84
2021/03/30 01:10:04;;;;;;;0.60;0.60;;;8.40;99.90;;;;;;6092645;23;20189;-84
2021/03/30 01:12:42;;;;;;;0.60;0.60;;;8.50;99.90;;;;;;6091057;23;20261;-84
2021/03/30 01:15:24;;;;;;;0.55;0.55;;;8.90;99.90;;;;;;6091971;23;20170;-83
2021/03/30 01:17:59;;;;;;;0.50;0.50;;;8.00;99.90;;;;;;6093264;23;20164;-85
2021/03/30 01:20:58;;;;;;;0.50;0.50;;;9.00;99.90;;;;;;6093576;23;20246;-85
2021/03/30 01:24:01;;;;;;;0.60;0.60;;;8.90;99.90;;;;;;6091709;23;20509;-85
2021/03/30 01:26:39;;;;;;;0.60;0.60;;;8.60;99.90;;;;;;6091910;23;20205;-85
2021/03/30 01:29:19;;;;;;;0.60;0.60;;;8.50;99.90;;;;;;6092382;23;20240;-84
2021/03/30 01:31:50;;;;;;;0.60;0.60;;;8.40;99.90;;;;;;6090572;23;20175;-84
2021/03/30 01:34:20;;;;;;;0.60;0.60;;;8.50;99.90;;;;;;6090931;23;20194;-87
2021/03/30 01:36:49;;;;;;;0.60;0.60;;;8.50;99.90;;;;;;6090664;23;20254;-85
2021/03/30 01:39:17;;;;;;;0.50;0.50;;;8.50;99.90;;;;;;6090313;23;20179;-85
2021/03/30 01:41:47;;;;;;;0.57;0.57;;;7.60;99.90;;;;;;6092261;23;20191;-86
2021/03/30 01:44:17;;;;;;;0.50;0.50;;;13.00;99.90;;;;;;6097505;23;20179;-86
2021/03/30 01:46:45;;;;;;;0.60;0.60;;;8.40;99.90;;;;;;6096998;23;20190;-86
2021/03/30 01:49:13;;;;;;;0.60;0.60;;;11.80;99.90;;;;;;6096326;23;20482;-86
2021/03/30 01:51:43;;;;;;;0.60;0.60;;;10.50;99.90;;;;;;6096629;23;20230;-88
2021/03/30 01:54:11;;;;;;;0.60;0.60;;;8.80;99.90;;;;;;6097504;23;20226;-85
2021/03/30 01:56:40;;;;;;;0.60;0.60;;;8.40;99.90;;;;;;6098555;23;20179;-88
2021/03/30 01:59:09;;;;;;;0.60;0.60;;;10.10;99.90;;;;;;6098929;23;20226;-85
2021/03/30 02:01:38;;;;;;;0.57;0.57;;;8.20;99.90;;;;;;6095699;23;20191;-85
2021/03/30 02:04:06;;;;;;;0.60;0.60;;;8.30;99.90;;;;;;6094216;23;20569;-85
2021/03/30 02:06:33;;;;;;;0.60;0.60;;;8.40;99.90;;;;;;6093826;23;20182;-85
2021/03/30 02:09:04;;;;;;;0.60;0.60;;;9.50;99.90;;;;;;6092837;23;20191;-84
2021/03/30 02:11:34;;;;;;;0.50;0.50;;;10.80;99.90;;;;;;6088843;23;20289;-84
2021/03/30 02:14:01;;;;;;;0.60;0.60;;;8.20;99.90;;;;;;6087714;23;20195;-84
2021/03/30 02:16:34;;;;;;;0.57;0.57;;;8.10;99.90;;;;;;6087812;23;20278;-85
2021/03/30 02:19:10;;;;;;;0.60;0.60;;;8.30;99.90;;;;;;6087947;23;20168;-85
2021/03/30 02:21:44;;;;;;;0.50;0.50;;;8.40;99.90;;;;;;6088602;23;20195;-84
2021/03/30 02:24:12;;;;;;;0.60;0.60;;;8.30;99.90;;;;;;6088020;23;20164;-84
2021/03/30 02:26:40;;;;;;;0.50;0.50;;;8.40;99.90;;;;;;6087247;23;20178;-84
2021/03/30 02:29:10;;;;;;;0.60;0.60;;;8.10;99.90;;;;;;6087636;23;20265;-84
2021/03/30 02:31:38;;;;;;;0.60;0.60;;;8.20;99.90;;;;;;6087507;23;20181;-84
2021/03/30 02:34:07;;;;;;;0.60;0.60;;;9.00;99.90;;;;;;6088243;23;20203;-84
2021/03/30 02:36:35;;;;;;;0.60;0.60;;;8.00;99.90;;;;;;6089175;23;20550;-85
2021/03/30 02:39:06;;;;;;;0.60;0.60;;;9.90;99.90;;;;;;6088830;23;20237;-85
2021/03/30 02:41:38;;;;;;;0.60;0.60;;;8.30;99.90;;;;;;6113304;23;20178;-86
2021/03/30 02:44:08;;;;;;;0.50;0.50;;;8.70;99.90;;;;;;6111487;23;20182;-86
2021/03/30 02:46:40;;;;;;;0.60;0.60;;;8.20;99.90;;;;;;6113523;23;20205;-87
2021/03/30 02:49:14;;;;;;;0.60;0.60;;;8.80;99.90;;;;;;6109836;23;20627;-86
2021/03/30 02:51:41;;;;;;;0.60;0.60;;;7.60;99.90;;;;;;6102642;23;20270;-86
2021/03/30 02:54:10;;;;;;;0.57;0.57;;;7.90;99.90;;;;;;6098688;23;20709;-85
2021/03/30 02:56:37;;;;;;;0.55;0.55;;;11.40;99.90;;;;;;6087744;23;20179;-85
2021/03/30 02:59:03;;;;;;;0.60;0.60;;;7.70;99.90;;;;;;6088226;23;20183;-85
2021/03/30 03:01:31;;;;;;;0.60;0.60;;;7.90;99.90;;;;;;6087585;23;20254;-85
2021/03/30 03:04:00;;;;;;;0.50;0.50;;;7.90;99.90;;;;;;6087750;23;20187;-85
2021/03/30 03:06:28;;;;;;;0.60;0.60;;;7.80;99.90;;;;;;6088190;23;20183;-84
2021/03/30 03:08:56;;;;;;;0.60;0.60;;;7.70;99.90;;;;;;6087135;23;20198;-85
2021/03/30 03:11:22;;;;;;;0.50;0.50;;;7.70;99.90;;;;;;6087660;23;20484;-85
2021/03/30 03:13:53;;;;;;;0.60;0.60;;;7.50;99.90;;;;;;6087491;23;20531;-85
2021/03/30 03:16:20;;;;;;;0.50;0.50;;;8.30;99.90;;;;;;6087879;23;20183;-85
2021/03/30 03:18:47;;;;;;;0.60;0.60;;;7.60;99.90;;;;;;6087075;23;20186;-85
2021/03/30 03:21:14;;;;;;;0.50;0.50;;;9.40;99.90;;;;;;6092477;23;20742;-85
2021/03/30 03:23:42;;;;;;;0.57;0.57;;;7.80;99.90;;;;;;6093601;23;20593;-87
2021/03/30 03:26:11;;;;;;;0.60;0.60;;;7.10;99.90;;;;;;6097124;23;20205;-86
2021/03/30 03:28:39;;;;;;;0.60;0.60;;;8.20;99.90;;;;;;6098819;23;20179;-85
2021/03/30 03:31:06;;;;;;;0.60;0.60;;;9.30;99.90;;;;;;6090436;23;20547;-85
2021/03/30 03:33:32;;;;;;;0.60;0.60;;;7.50;99.90;;;;;;6090509;23;20519;-85
2021/03/30 03:36:08;;;;;;;0.50;0.50;;;7.50;99.90;;;;;;6088902;23;20186;-84
2021/03/30 03:38:35;;;;;;;0.60;0.60;;;7.80;99.90;;;;;;6088882;23;20167;-83
2021/03/30 03:41:03;;;;;;;0.60;0.60;;;7.60;99.90;;;;;;6088220;23;20187;-85
2021/03/30 03:43:29;;;;;;;0.50;0.50;;;7.50;99.90;;;;;;6081380;23;20179;-85
2021/03/30 03:45:56;;;;;;;0.60;0.60;;;7.50;99.90;;;;;;6088076;23;20180;-84
2021/03/30 03:48:22;;;;;;;0.60;0.60;;;7.30;99.90;;;;;;6088211;23;20195;-84
2021/03/30 03:50:49;;;;;;;0.50;0.50;;;7.40;99.90;;;;;;6088017;23;20207;-84
2021/03/30 03:53:18;;;;;;;0.57;0.57;;;7.40;99.90;;;;;;6087819;23;20203;-84
2021/03/30 03:55:48;;;;;;;0.50;0.50;;;7.30;99.90;;;;;;6087415;23;20175;-85
2021/03/30 03:58:20;;;;;;;0.60;0.60;;;7.30;99.90;;;;;;6087761;23;20269;-84
2021/03/30 04:00:47;;;;;;;0.55;0.55;;;7.30;99.90;;;;;;6087360;23;20179;-84
2021/03/30 04:03:20;;;;;;;0.50;0.50;;;7.30;99.90;;;;;;6087430;23;20564;-84
2021/03/30 04:06:05;;;;;;;0.60;0.60;;;7.50;99.90;;;;;;6088375;23;20164;-85
2021/03/30 04:08:34;;;;;;;0.60;0.60;;;7.40;99.90;;;;;;6088554;23;20257;-84
2021/03/30 04:11:04;;;;;;;0.60;0.60;;;7.30;99.90;;;;;;6087972;23;20183;-84
2021/03/30 04:13:32;;;;;;;0.52;0.52;;;7.30;99.90;;;;;;6091311;23;20199;-84
2021/03/30 04:16:01;;;;;;;0.50;0.50;;;7.10;99.90;;;;;;6089500;23;20392;-84
2021/03/30 04:18:28;;;;;;;0.50;0.50;;;7.50;99.90;;;;;;6087962;23;20190;-84
2021/03/30 04:20:55;;;;;;;0.60;0.60;;;7.30;99.90;;;;;;6088136;23;20176;-84
2021/03/30 04:23:24;;;;;;;0.60;0.60;;;7.20;99.90;;;;;;6088259;23;20635;-85
2021/03/30 04:25:51;;;;;;;0.60;0.60;;;7.20;99.90;;;;;;6088291;23;20188;-84
2021/03/30 04:28:17;;;;;;;0.60;0.60;;;7.10;99.90;;;;;;6091102;23;20179;-84
2021/03/30 04:30:45;;;;;;;0.60;0.60;;;7.00;99.90;;;;;;6088791;23;20266;-86
2021/03/30 04:33:12;;;;;;;0.60;0.60;;;7.00;99.90;;;;;;6092528;23;20425;-86
2021/03/30 04:35:38;;;;;;;0.60;0.60;;;7.00;99.90;;;;;;6087746;23;20187;-83
2021/03/30 04:38:04;;;;;;;0.50;0.50;;;6.90;99.90;;;;;;6088362;23;20179;-83
2021/03/30 04:40:30;;;;;;;0.50;0.50;;;6.90;99.90;;;;;;6088145;23;20734;-84
2021/03/30 04:42:57;;;;;;;0.60;0.60;;;6.80;99.90;;;;;;6087706;23;20180;-83
2021/03/30 04:45:23;;;;;;;0.60;0.60;;;6.90;99.90;;;;;;6091532;23;20187;-84
2021/03/30 04:47:50;;;;;;;0.60;0.60;;;7.40;99.90;;;;;;6088807;23;20632;-83
2021/03/30 04:50:17;;;;;;;0.50;0.50;;;6.90;99.90;;;;;;6088608;23;20254;-83
2021/03/30 04:52:43;;;;;;;0.57;0.57;;;6.70;99.90;;;;;;6082567;23;20211;-84
2021/03/30 04:55:10;;;;;;;0.60;0.60;;;6.90;99.90;;;;;;6087535;23;20156;-83
2021/03/30 04:57:36;;;;;;;0.60;0.60;;;6.90;99.90;;;;;;6088027;23;20559;-83
2021/03/30 05:00:03;;;;;;;0.60;0.60;;;7.80;99.90;;;;;;6087450;23;20638;-83
2021/03/30 05:02:29;;;;;;;0.50;0.50;;;6.80;99.90;;;;;;6087419;23;20214;-83
2021/03/30 05:04:56;;;;;;;0.60;0.60;;;6.70;99.90;;;;;;6087529;23;20175;-84
2021/03/30 05:07:23;;;;;;;0.60;0.60;;;6.60;99.90;;;;;;6092453;23;20202;-85
2021/03/30 05:09:49;;;;;;;0.60;0.60;;;6.70;99.90;;;;;;6088227;23;20570;-83
2021/03/30 05:12:15;;;;;;;0.60;0.60;;;6.80;99.90;;;;;;6090104;23;20178;-85
2021/03/30 05:14:41;;;;;;;0.60;0.60;;;6.70;99.90;;;;;;6088814;23;20334;-84
2021/03/30 05:17:08;;;;;;;0.60;0.60;;;6.80;99.90;;;;;;6088171;23;20237;-85
2021/03/30 05:19:34;;;;;;;0.50;0.50;;;6.70;99.90;;;;;;6088780;23;20663;-86
2021/03/30 05:22:01;;;;;;;0.60;0.60;;;6.80;99.90;;;;;;6088922;23;20183;-84
2021/03/30 05:24:27;;;;;;;0.60;0.60;;;6.80;99.90;;;;;;6088558;23;20706;-86
2021/03/30 05:26:53;;;;;;;0.60;0.60;;;6.90;99.90;;;;;;6098578;23;20270;-86
2021/03/30 05:29:20;;;;;;;0.60;0.60;;;7.00;99.90;;;;;;6109699;23;20195;-86
2021/03/30 05:31:49;;;;;;;0.50;0.50;;;8.00;99.90;;;;;;6104028;23;20175;-86
2021/03/30 05:34:16;;;;;;;0.60;0.60;;;7.20;99.90;;;;;;6111044;23;20199;-86
2021/03/30 05:36:44;;;;;;;0.60;0.60;;;7.30;99.90;;;;;;6107392;23;20232;-88
2021/03/30 05:39:15;;;;;;;0.60;0.60;;;8.40;99.90;;;;;;6098876;23;20819;-88
2021/03/30 05:41:43;;;;;;;0.50;0.50;;;11.20;99.90;;;;;;6101870;23;20172;-88
2021/03/30 05:44:11;;;;;;;0.60;0.60;;;9.20;99.90;;;;;;6100906;23;20180;-85
2021/03/30 05:46:41;;;;;;;0.60;0.60;;;7.00;99.90;;;;;;6094565;23;20254;-85
2021/03/30 05:49:07;;;;;;;0.50;0.50;;;6.70;99.90;;;;;;6095744;23;20183;-88
2021/03/30 05:51:50;;;;;;;0.60;0.60;;;7.60;99.90;;;;;;6088756;23;20285;-86
2021/03/30 05:54:20;;;;;;;0.60;0.60;;;7.20;99.90;;;;;;6085713;23;20521;-87
2021/03/30 05:56:47;;;;;;;0.60;0.60;;;7.00;99.90;;;;;;6086808;23;20628;-88
2021/03/30 05:59:21;;;;;;;0.60;0.60;;;6.60;99.90;;;;;;6102313;22;20227;-85
2021/03/30 06:01:54;;;;;;;0.60;0.60;;;7.40;99.90;;;;;;6102462;23;20217;-83
2021/03/30 06:04:25;;;;;;;0.60;0.60;;;8.10;99.90;;;;;;6104115;23;20196;-84
2021/03/30 06:07:02;;;;;;;;;;;;;;;;;;;;;
2021/03/30 06:09:34;;;;;;;0.60;0.60;;;12.20;99.90;;;;;;6098903;23;20543;-86
2021/03/30 06:12:16;;;;;;;0.60;0.60;;;13.50;99.90;;;;;;6099915;23;20167;-85
2021/03/30 06:15:01;;;;;;;0.50;0.50;;;11.90;99.90;;;;;;6099726;23;20472;-85
2021/03/30 06:17:39;;;;;;;0.50;0.50;;;9.60;99.90;;;;;;6099584;23;20167;-85
2021/03/30 06:20:09;;;;;;;0.60;0.60;;;11.20;99.90;;;;;;6096717;23;20201;-85
2021/03/30 06:22:47;;;;;;;0.60;0.60;;;10.20;99.90;;;;;;6093038;23;20171;-86
2021/03/30 06:25:44;;;;;;;0.60;0.60;;;12.00;99.90;;;;;;6093956;23;20174;-85
2021/03/30 06:28:15;;;;;;;0.60;0.60;;;9.50;99.90;;;;;;6092945;23;20187;-85
2021/03/30 06:30:55;;;;;;;0.60;0.60;;;9.50;99.90;;;;;;6092426;23;20294;-85
2021/03/30 06:33:24;;;;;;;0.50;0.50;;;8.40;99.90;;;;;;6094021;23;20214;-85
2021/03/30 06:35:50;;;;;;;0.60;0.60;;;10.40;99.90;;;;;;6094705;23;20200;-86
2021/03/30 06:38:17;;;;;;;0.60;0.60;;;9.20;99.90;;;;;;6094432;23;20180;-85
2021/03/30 06:40:46;;;;;;;0.60;0.60;;;9.40;99.90;;;;;;6095840;23;20209;-85
2021/03/30 06:46:07;;;;;;;0.60;0.60;;;9.80;99.90;;;;;;6096587;23;20194;-85
2021/03/30 06:48:34;;;;;;;0.60;0.60;;;11.40;99.90;;;;;;6092699;23;20172;-85
2021/03/30 06:51:16;;;;;;;0.60;0.60;;;11.90;99.90;;;;;;6092407;23;20281;-85
2021/03/30 06:53:43;;;;;;;0.60;0.60;;;9.60;99.90;;;;;;6092032;23;20559;-85
2021/03/30 06:56:10;;;;;;;0.60;0.60;;;9.00;99.90;;;;;;6093083;23;20246;-85
2021/03/30 06:58:55;;;;;;;0.60;0.60;;;12.80;99.90;;;;;;6094125;23;20177;-85
2021/03/30 07:01:25;;;;;;;0.60;0.60;;;10.20;99.90;;;;;;6095117;23;20198;-85
2021/03/30 07:03:53;;;;;;;0.60;0.60;;;10.20;99.90;;;;;;6095466;23;20179;-85
2021/03/30 07:06:24;;;;;;;0.60;0.60;;;10.20;99.90;;;;;;6100274;23;20202;-85
2021/03/30 07:08:50;;;;;;;0.60;0.60;;;10.40;99.90;;;;;;6095383;23;20616;-85
2021/03/30 07:14:19;;;;;;;0.60;0.60;;;14.70;99.90;;;;;;6106977;23;20195;-81
2021/03/30 07:17:10;;;;;;;0.55;0.55;;;10.70;99.90;;;;;;6093055;23;20231;-81
2021/03/30 07:19:39;;;;;;;0.60;0.60;;;13.40;99.90;;;;;;6100603;23;20218;-82
2021/03/30 07:22:10;;;;;;;0.50;0.50;;;11.10;99.90;;;;;;6092560;23;20182;-81
2021/03/30 07:24:55;;;;;;;;;;;;;;;;;;;;;
2021/03/30 07:28:07;;;;;;;0.60;0.60;;;12.30;99.90;;;;;;6110246;23;20626;-83
2021/03/30 07:30:44;;;;;;;;;;;;;;;;;;;;;
2021/03/30 07:33:37;;;;;;;0.60;0.60;;;10.60;99.90;;;;;;6151063;22;20231;-89
2021/03/30 07:40:10;;;;;;;0.55;0.55;;;11.00;99.90;;;;;;6108713;23;20177;-88
2021/03/30 07:46:08;;;;;;;0.60;0.60;;;10.70;99.90;;;;;;6239769;22;20365;-89
2021/03/30 07:51:57;;;;;;;0.60;0.60;;;12.00;99.90;;;;;;6220914;22;20459;-88
2021/03/30 07:54:56;;;;;;;0.50;0.50;;;12.70;99.90;;;;;;6243239;22;20207;-88
2021/03/30 07:58:11;;;;;;;0.60;0.60;;;11.60;99.90;;;;;;6203932;22;20195;-88
2021/03/30 08:00:53;;;;;;;0.55;0.55;;;12.00;99.90;;;;;;6244803;22;20176;-88
2021/03/30 08:03:59;;;;;;;0.60;0.60;;;13.00;99.90;;;;;;6238904;23;20271;-88
2021/03/30 08:06:27;;;;;;;0.60;0.60;;;11.80;99.90;;;;;;6124117;23;20181;-86
2021/03/30 08:40:58;;;;;;;0.60;0.60;;;13.00;99.90;;;;;;6120288;23;20396;-84
2021/03/30 08:43:27;;;;;;;0.60;0.60;;;13.20;99.90;;;;;;6132936;23;20183;-86
2021/03/30 08:48:49;;;;;;;;;;;;;;;;;;;;;
2021/03/30 08:51:18;;;;;;;0.60;0.60;;;16.10;99.90;;;;;;6127156;23;20226;-84
2021/03/30 08:53:50;;;;;;;0.60;0.60;;;16.80;99.90;;;;;;6125103;23;20202;-85
2021/03/30 08:56:31;;;;;;;0.60;0.60;;;15.60;99.90;;;;;;6117327;23;20201;-87
2021/03/30 08:59:03;;;;;;;0.57;0.57;;;13.90;99.90;;;;;;6118914;23;20163;-86
2021/03/30 09:01:38;;;;;;;0.60;0.60;;;13.90;99.90;;;;;;6130975;23;20259;-87
2021/03/30 09:04:10;;;;;;;0.60;0.60;;;14.70;99.90;;;;;;6125432;23;20189;-86
2021/03/30 09:06:40;;;;;;;0.60;0.60;;;14.50;99.90;;;;;;6114749;23;20190;-86
2021/03/30 09:09:20;;;;;;;0.60;0.60;;;15.10;99.90;;;;;;6122667;23;20174;-87
2021/03/30 09:11:50;;;;;;;0.60;0.60;;;15.20;99.90;;;;;;6123682;23;20483;-86
2021/03/30 09:17:46;;;;;;;;;;;;;;;;;;;;;
2021/03/30 09:20:42;;;;;;;0.60;0.60;;;15.10;99.90;;;;;;6132689;23;20178;-86
2021/03/30 09:23:15;;;;;;;0.60;0.60;;;14.90;99.90;;;;;;6122696;23;20205;-86
2021/03/30 09:25:43;;;;;;;0.50;0.50;;;15.90;99.90;;;;;;6118475;23;20167;-86
2021/03/30 09:28:15;;;;;;;0.60;0.60;;;16.70;99.90;;;;;;6113322;23;20250;-86
2021/03/30 09:30:43;;;;;;;0.60;0.60;;;15.20;99.90;;;;;;6118924;23;20170;-86
2021/03/30 09:33:11;;;;;;;0.60;0.60;;;15.30;99.90;;;;;;6118795;23;20286;-86
2021/03/30 09:35:38;;;;;;;0.60;0.60;;;14.60;99.90;;;;;;6117935;23;20179;-85
2021/03/30 09:38:05;;;;;;;0.60;0.60;;;15.30;99.90;;;;;;6119710;23;20179;-86
2021/03/30 09:40:40;;;;;;;0.60;0.60;;;17.10;99.90;;;;;;6119212;23;20180;-86
2021/03/30 09:43:07;;;;;;;0.60;0.60;;;17.10;99.90;;;;;;6119597;23;20522;-86
2021/03/30 09:46:08;;;;;;;0.60;0.60;;;15.30;99.90;;;;;;6120834;23;20639;-84
2021/03/30 09:48:34;;;;;;;0.60;0.60;;;15.20;99.90;;;;;;6117650;23;20208;-86
2021/03/30 09:51:12;;;;;;;0.60;0.60;;;15.80;99.90;;;;;;6126471;23;20213;-87
2021/03/30 10:19:33;;;;;;;0.60;0.60;;;16.50;99.90;;;;;;6085445;23;20221;-86
2021/03/30 10:21:59;;;;;;;0.60;0.60;;;18.50;99.90;;;;;;6087424;23;20178;-86
2021/03/30 10:24:25;;;;;;;0.60;0.60;;;16.60;99.90;;;;;;6086907;23;20185;-86
2021/03/30 10:27:05;;;;;;;0.60;0.60;;;16.80;99.90;;;;;;6087472;23;20229;-85
2021/03/30 10:29:39;;;;;;;0.60;0.60;;;15.80;99.90;;;;;;6086896;23;20167;-86
2021/03/30 10:32:10;;;;;;;0.60;0.60;;;17.10;99.90;;;;;;6087769;23;20191;-87
2021/03/30 10:34:38;;;;;;;0.60;0.60;;;17.20;99.90;;;;;;6087852;23;20194;-87
2021/03/30 10:37:07;;;;;;;0.60;0.60;;;16.60;99.90;;;;;;6087685;23;20179;-86
2021/03/30 10:39:36;;;;;;;0.60;0.60;;;17.50;99.90;;;;;;6087524;23;20175;-86
2021/03/30 10:42:06;;;;;;;0.60;0.60;;;17.80;99.90;;;;;;6085562;23;20518;-86
2021/03/30 10:44:34;;;;;;;0.60;0.60;;;17.40;99.90;;;;;;6087132;23;20179;-86
2021/03/30 10:47:13;;;;;;;0.60;0.60;;;18.10;99.90;;;;;;6087086;23;20183;-86
2021/03/30 10:49:40;;;;;;;0.60;0.60;;;17.40;99.90;;;;;;6087112;23;20171;-86
2021/03/30 10:52:10;;;;;;;0.60;0.60;;;17.50;99.90;;;;;;6087300;23;20265;-86
2021/03/30 10:54:38;;;;;;;0.60;0.60;;;18.40;99.90;;;;;;6087191;23;20241;-86
2021/03/30 10:57:08;;;;;;;0.57;0.57;;;17.90;99.90;;;;;;6087595;23;20183;-86
2021/03/30 10:59:34;;;;;;;0.60;0.60;;;17.90;99.90;;;;;;6086678;23;20175;-86
2021/03/30 11:02:00;;;;;;;0.60;0.60;;;17.90;99.90;;;;;;6087196;23;20219;-86
2021/03/30 11:04:26;;;;;;;0.50;0.50;;;18.30;99.90;;;;;;6088567;23;20266;-86
2021/03/30 11:06:59;;;;;;;0.60;0.60;;;18.30;99.90;;;;;;6095107;23;20258;-88
2021/03/30 11:09:26;;;;;;;0.60;0.60;;;20.50;99.90;;;;;;6089719;23;20250;-86
2021/03/30 11:11:53;;;;;;;0.60;0.60;;;18.50;99.90;;;;;;6087127;23;20214;-80
2021/03/30 11:14:20;;;;;;;0.60;0.60;;;18.40;99.90;;;;;;6090446;23;20194;-86
2021/03/30 11:16:46;;;;;;;0.60;0.60;;;18.70;99.90;;;;;;6090575;23;20183;-88
2021/03/30 11:24:40;;;;;;;0.57;0.57;;;19.00;99.90;;;;;;6089836;22;20210;-83
2021/03/30 11:27:07;;;;;;;0.60;0.60;;;19.80;99.90;;;;;;6091805;23;20217;-85
2021/03/30 11:29:40;;;;;;;0.60;0.60;;;19.60;99.90;;;;;;6089902;23;20187;-85
2021/03/30 11:32:24;;;;;;;0.60;0.60;;;19.80;99.90;;;;;;6090585;23;20183;-87
2021/03/30 11:34:55;;;;;;;0.60;0.60;;;19.70;99.90;;;;;;6090947;23;20226;-84
2021/03/30 11:37:38;;;;;;;0.60;0.60;;;20.60;99.90;;;;;;6089859;23;20636;-85
2021/03/30 11:40:18;;;;;;;0.60;0.60;;;19.80;99.90;;;;;;6089550;23;20263;-85
2021/03/30 11:42:44;;;;;;;0.60;0.60;;;20.10;99.90;;;;;;6087694;23;20229;-84
2021/03/30 11:45:11;;;;;;;0.60;0.60;;;20.00;99.90;;;;;;6088731;23;20172;-84
2021/03/30 11:47:40;;;;;;;0.60;0.60;;;20.60;99.90;;;;;;6088772;23;20187;-83
2021/03/30 11:50:08;;;;;;;0.60;0.60;;;20.80;99.90;;;;;;6088864;23;20586;-84
2021/03/30 11:52:34;;;;;;;0.60;0.60;;;20.70;99.90;;;;;;6089466;23;20205;-84
2021/03/30 11:55:01;;;;;;;0.60;0.60;;;20.90;99.90;;;;;;6088891;23;20533;-84
2021/03/30 11:57:28;;;;;;;0.60;0.60;;;20.80;99.90;;;;;;6088873;23;20496;-83
2021/03/30 11:59:54;;;;;;;0.60;0.60;;;20.60;99.90;;;;;;6088014;23;20176;-84
2021/03/30 12:02:20;;;;;;;0.60;0.60;;;20.80;99.90;;;;;;6090359;23;20179;-85
2021/03/30 12:04:46;;;;;;;0.60;0.60;;;20.90;99.90;;;;;;6094059;23;20183;-83
2021/03/30 12:07:12;;;;;;;0.60;0.60;;;21.00;99.90;;;;;;6092350;23;20294;-85
2021/03/30 12:09:38;;;;;;;0.60;0.60;;;21.20;99.90;;;;;;6097096;23;20470;-88
2021/03/30 12:12:06;;;;;;;0.60;0.60;;;21.20;99.90;;;;;;6091966;23;20183;-84
2021/03/30 12:14:33;;;;;;;0.60;0.60;;;21.30;99.90;;;;;;6098730;23;20191;-84
2021/03/30 12:17:02;;;;;;;0.60;0.60;;;21.50;99.90;;;;;;6109135;23;20223;-84
2021/03/30 12:19:28;;;;;;;0.60;0.60;;;21.40;99.90;;;;;;6104987;23;20202;-84
2021/03/30 12:21:57;;;;;;;0.60;0.60;;;21.70;99.90;;;;;;6101392;23;20180;-83
2021/03/30 12:24:26;;;;;;;0.60;0.60;;;21.50;99.90;;;;;;6107337;23;20207;-83
2021/03/30 12:26:55;;;;;;;0.60;0.60;;;21.10;99.90;;;;;;6111468;23;20205;-83
2021/03/30 12:29:21;;;;;;;0.60;0.60;;;21.60;99.90;;;;;;6098373;23;20711;-87
2021/03/30 12:31:48;;;;;;;0.60;0.60;;;19.80;99.90;;;;;;6087486;23;20674;-87
2021/03/30 12:34:14;;;;;;;0.60;0.60;;;20.70;99.90;;;;;;6088492;23;20217;-83
2021/03/30 12:36:43;;;;;;;0.60;0.60;;;21.40;99.90;;;;;;6090250;23;20180;-85
2021/03/30 12:39:10;;;;;;;0.60;0.60;;;21.50;99.90;;;;;;6089391;23;20176;-85
2021/03/30 12:41:37;;;;;;;0.60;0.60;;;21.80;99.90;;;;;;6088210;23;20240;-86
2021/03/30 12:44:04;;;;;;;0.60;0.60;;;21.90;99.90;;;;;;6087528;23;20175;-85
2021/03/30 12:46:31;;;;;;;0.50;0.50;;;22.00;99.90;;;;;;6087445;23;20261;-86
2021/03/30 12:48:58;;;;;;;0.57;0.57;;;22.60;99.90;;;;;;6087407;23;20178;-86
2021/03/30 12:51:24;;;;;;;0.60;0.60;;;21.60;99.90;;;;;;6087408;23;20195;-86
2021/03/30 12:53:51;;;;;;;0.60;0.60;;;21.70;99.90;;;;;;6087480;23;20372;-86
2021/03/30 12:56:17;;;;;;;0.60;0.60;;;21.90;99.90;;;;;;6087609;23;20183;-86
2021/03/30 12:58:43;;;;;;;0.52;0.52;;;23.80;99.90;;;;;;6086899;23;20229;-86
2021/03/30 13:01:09;;;;;;;0.60;0.60;;;21.80;99.90;;;;;;6086755;23;20511;-87
2021/03/30 13:03:36;;;;;;;0.60;0.60;;;21.90;99.90;;;;;;6087658;23;20639;-86
2021/03/30 13:06:03;;;;;;;0.60;0.60;;;21.70;99.90;;;;;;6087609;23;20484;-86
2021/03/30 13:08:31;;;;;;;0.60;0.60;;;23.10;99.90;;;;;;6087340;23;20198;-85
2021/03/30 13:10:57;;;;;;;0.60;0.60;;;19.70;99.90;;;;;;6087627;23;20835;-85
2021/03/30 13:13:23;;;;;;;0.60;0.60;;;23.10;99.90;;;;;;6086663;23;20199;-83
2021/03/30 13:15:50;;;;;;;0.60;0.60;;;22.40;99.90;;;;;;6087311;23;20179;-84
2021/03/30 13:18:16;;;;;;;0.60;0.60;;;22.00;99.90;;;;;;6087386;23;20267;-84
2021/03/30 13:20:42;;;;;;;0.60;0.60;;;22.00;99.90;;;;;;6087707;23;20179;-84
2021/03/30 13:23:09;;;;;;;0.60;0.60;;;22.40;99.90;;;;;;6087135;23;20187;-84
2021/03/30 13:25:35;;;;;;;0.60;0.60;;;22.00;99.90;;;;;;6087914;23;20174;-84
2021/03/30 13:28:04;;;;;;;0.60;0.60;;;22.00;99.90;;;;;;6086442;23;20601;-84
2021/03/30 13:30:31;;;;;;;0.57;0.57;;;22.10;99.90;;;;;;6087113;23;20628;-85
2021/03/30 13:32:57;;;;;;;0.60;0.60;;;22.10;99.90;;;;;;6086918;23;20793;-85
2021/03/30 13:35:24;;;;;;;0.55;0.55;;;22.10;99.90;;;;;;6087381;23;20203;-85
2021/03/30 13:37:50;;;;;;;0.60;0.60;;;22.10;99.90;;;;;;6087183;23;20175;-85
2021/03/30 13:40:18;;;;;;;0.60;0.60;;;22.10;99.90;;;;;;6087639;23;20190;-84
2021/03/30 13:42:45;;;;;;;0.60;0.60;;;22.00;99.90;;;;;;6087855;23;20206;-83
2021/03/30 13:45:12;;;;;;;0.60;0.60;;;22.20;99.90;;;;;;6088701;23;20656;-85
2021/03/30 13:47:39;;;;;;;0.60;0.60;;;22.20;99.90;;;;;;6089218;23;20544;-84
2021/03/30 13:50:07;;;;;;;0.60;0.60;;;22.30;99.90;;;;;;6088373;23;20186;-84
2021/03/30 13:52:41;;;;;;;0.60;0.60;;;22.30;99.90;;;;;;6087298;23;20281;-87
2021/03/30 13:55:08;;;;;;;0.60;0.60;;;22.30;99.90;;;;;;6085749;23;20207;-87
2021/03/30 13:57:46;;;;;;;0.60;0.60;;;22.20;99.90;;;;;;6087389;23;20179;-87
2021/03/30 14:00:16;;;;;;;0.60;0.60;;;23.00;99.90;;;;;;6088365;23;20437;-86
2021/03/30 14:02:43;;;;;;;0.60;0.60;;;22.50;99.90;;;;;;6088758;23;20602;-88
2021/03/30 14:05:10;;;;;;;0.60;0.60;;;21.90;99.90;;;;;;6089001;23;20186;-87
2021/03/30 14:07:37;;;;;;;0.60;0.60;;;22.60;99.90;;;;;;6089062;23;20183;-86
2021/03/30 14:10:05;;;;;;;0.60;0.60;;;22.70;99.90;;;;;;6088748;23;20175;-87
2021/03/30 14:12:35;;;;;;;0.60;0.60;;;22.60;99.90;;;;;;6088907;23;20171;-86
2021/03/30 14:15:14;;;;;;;0.60;0.60;;;22.80;99.90;;;;;;6088724;23;20207;-86
2021/03/30 14:17:42;;;;;;;0.60;0.60;;;22.40;99.90;;;;;;6088420;23;20245;-87
2021/03/30 14:20:10;;;;;;;0.60;0.60;;;24.60;99.90;;;;;;6088695;23;20493;-87
2021/03/30 14:22:40;;;;;;;0.60;0.60;;;22.30;99.90;;;;;;6089285;23;20551;-87
2021/03/30 14:25:23;;;;;;;0.60;0.60;;;22.00;99.90;;;;;;6088785;23;20234;-86
2021/03/30 14:27:50;;;;;;;0.60;0.60;;;22.00;99.90;;;;;;6088244;23;20213;-85
2021/03/30 14:30:18;;;;;;;0.60;0.60;;;21.80;99.90;;;;;;6088979;23;20187;-86
2021/03/30 14:32:45;;;;;;;0.60;0.60;;;19.50;99.90;;;;;;6088675;23;20194;-86
2021/03/30 14:35:15;;;;;;;0.60;0.60;;;22.00;99.90;;;;;;6088434;23;20203;-87
2021/03/30 14:37:42;;;;;;;0.60;0.60;;;21.80;99.90;;;;;;6088485;23;20183;-87
2021/03/30 14:40:17;;;;;;;0.60;0.60;;;22.60;99.90;;;;;;6088549;23;20183;-88